sensor_id;sensor_type;location;lat;lon;timestamp;P1;durP1;ratioP1;P2;durP2;ratioP2
75156;SDS011;63736;50.076;8.198;2023-09-08T00:00:07;922.97;;;221.27;;
75156;SDS011;63736;50.076;8.198;2023-09-08T00:02:34;927.60;;;223.50;;
75156;SDS011;63736;50.076;8.198;2023-09-08T00:04:59;924.87;;;222.40;;
75156;SDS011;63736;50.076;8.198;2023-09-08T00:07:25;925.43;;;223.13;;
75156;SDS011;63736;50.076;8.198;2023-09-08T00:09:50;923.38;;;221.68;;
75156;SDS011;63736;50.076;8.198;2023-09-08T00:12:15;922.60;;;220.87;;
75156;SDS011;63736;50.076;8.198;2023-09-08T00:14:41;921.57;;;221.60;;
75156;SDS011;63736;50.076;8.198;2023-09-08T00:17:07;922.45;;;221.75;;
75156;SDS011;63736;50.076;8.198;2023-09-08T00:19:32;926.87;;;222.63;;
75156;SDS011;63736;50.076;8.198;2023-09-08T00:21:57;935.73;;;225.27;;
75156;SDS011;63736;50.076;8.198;2023-09-08T00:24:23;937.40;;;224.95;;
75156;SDS011;63736;50.076;8.198;2023-09-08T00:26:49;935.23;;;223.97;;
75156;SDS011;63736;50.076;8.198;2023-09-08T00:29:14;944.20;;;227.37;;
75156;SDS011;63736;50.076;8.198;2023-09-08T00:31:40;946.85;;;228.48;;
75156;SDS011;63736;50.076;8.198;2023-09-08T00:34:07;949.77;;;228.00;;
75156;SDS011;63736;50.076;8.198;2023-09-08T00:36:32;939.63;;;225.10;;
75156;SDS011;63736;50.076;8.198;2023-09-08T00:38:58;928.67;;;223.10;;
75156;SDS011;63736;50.076;8.198;2023-09-08T00:41:23;935.87;;;224.10;;
75156;SDS011;63736;50.076;8.198;2023-09-08T00:43:49;951.50;;;227.43;;
75156;SDS011;63736;50.076;8.198;2023-09-08T00:46:15;954.00;;;227.77;;
75156;SDS011;63736;50.076;8.198;2023-09-08T00:48:41;955.38;;;229.02;;
75156;SDS011;63736;50.076;8.198;2023-09-08T00:51:07;954.60;;;228.70;;
75156;SDS011;63736;50.076;8.198;2023-09-08T00:53:35;954.50;;;229.00;;
75156;SDS011;63736;50.076;8.198;2023-09-08T00:56:01;952.57;;;228.07;;
75156;SDS011;63736;50.076;8.198;2023-09-08T00:58:28;949.75;;;227.00;;
75156;SDS011;63736;50.076;8.198;2023-09-08T01:00:54;950.58;;;228.30;;
75156;SDS011;63736;50.076;8.198;2023-09-08T01:03:19;950.33;;;229.43;;
75156;SDS011;63736;50.076;8.198;2023-09-08T01:05:45;948.25;;;226.63;;
75156;SDS011;63736;50.076;8.198;2023-09-08T01:08:11;946.42;;;227.05;;
75156;SDS011;63736;50.076;8.198;2023-09-08T01:10:38;932.43;;;223.77;;
75156;SDS011;63736;50.076;8.198;2023-09-08T01:13:07;937.85;;;226.35;;
75156;SDS011;63736;50.076;8.198;2023-09-08T01:15:32;932.50;;;225.50;;
75156;SDS011;63736;50.076;8.198;2023-09-08T01:17:57;933.80;;;225.27;;
75156;SDS011;63736;50.076;8.198;2023-09-08T01:20:24;936.30;;;225.43;;
75156;SDS011;63736;50.076;8.198;2023-09-08T01:25:31;925.20;;;222.85;;
75156;SDS011;63736;50.076;8.198;2023-09-08T01:28:00;925.80;;;223.35;;
75156;SDS011;63736;50.076;8.198;2023-09-08T01:30:27;922.38;;;221.77;;
75156;SDS011;63736;50.076;8.198;2023-09-08T01:32:57;921.30;;;222.63;;
75156;SDS011;63736;50.076;8.198;2023-09-08T01:35:23;920.27;;;221.93;;
75156;SDS011;63736;50.076;8.198;2023-09-08T01:37:50;917.53;;;222.38;;
75156;SDS011;63736;50.076;8.198;2023-09-08T01:40:15;913.20;;;221.37;;
75156;SDS011;63736;50.076;8.198;2023-09-08T01:42:41;909.28;;;220.15;;
75156;SDS011;63736;50.076;8.198;2023-09-08T01:45:07;907.37;;;219.33;;
75156;SDS011;63736;50.076;8.198;2023-09-08T01:47:33;907.85;;;220.05;;
75156;SDS011;63736;50.076;8.198;2023-09-08T01:49:58;902.55;;;218.45;;
75156;SDS011;63736;50.076;8.198;2023-09-08T01:52:24;901.10;;;217.97;;
75156;SDS011;63736;50.076;8.198;2023-09-08T01:54:50;901.65;;;217.63;;
75156;SDS011;63736;50.076;8.198;2023-09-08T01:57:15;903.30;;;219.90;;
75156;SDS011;63736;50.076;8.198;2023-09-08T01:59:40;901.83;;;217.97;;
75156;SDS011;63736;50.076;8.198;2023-09-08T02:02:06;901.73;;;217.50;;
75156;SDS011;63736;50.076;8.198;2023-09-08T02:04:31;902.37;;;218.60;;
75156;SDS011;63736;50.076;8.198;2023-09-08T02:06:57;896.33;;;216.55;;
75156;SDS011;63736;50.076;8.198;2023-09-08T02:09:29;888.47;;;213.95;;
75156;SDS011;63736;50.076;8.198;2023-09-08T02:11:59;887.78;;;214.73;;
75156;SDS011;63736;50.076;8.198;2023-09-08T02:14:24;885.07;;;213.73;;
75156;SDS011;63736;50.076;8.198;2023-09-08T02:16:50;885.72;;;212.77;;
75156;SDS011;63736;50.076;8.198;2023-09-08T02:19:15;883.30;;;213.70;;
75156;SDS011;63736;50.076;8.198;2023-09-08T02:21:40;882.30;;;213.57;;
75156;SDS011;63736;50.076;8.198;2023-09-08T02:24:05;883.13;;;212.63;;
75156;SDS011;63736;50.076;8.198;2023-09-08T02:26:31;886.43;;;214.10;;
75156;SDS011;63736;50.076;8.198;2023-09-08T02:28:58;897.67;;;217.25;;
75156;SDS011;63736;50.076;8.198;2023-09-08T02:31:24;897.43;;;216.70;;
75156;SDS011;63736;50.076;8.198;2023-09-08T02:33:49;897.50;;;216.93;;
75156;SDS011;63736;50.076;8.198;2023-09-08T02:36:14;901.53;;;218.60;;
75156;SDS011;63736;50.076;8.198;2023-09-08T02:38:40;901.03;;;217.93;;
75156;SDS011;63736;50.076;8.198;2023-09-08T02:41:05;901.77;;;217.63;;
75156;SDS011;63736;50.076;8.198;2023-09-08T02:43:30;889.83;;;216.33;;
75156;SDS011;63736;50.076;8.198;2023-09-08T02:45:56;880.10;;;212.10;;
75156;SDS011;63736;50.076;8.198;2023-09-08T02:48:21;884.00;;;214.10;;
75156;SDS011;63736;50.076;8.198;2023-09-08T02:50:46;884.83;;;215.00;;
75156;SDS011;63736;50.076;8.198;2023-09-08T02:53:12;884.60;;;213.73;;
75156;SDS011;63736;50.076;8.198;2023-09-08T02:55:37;886.45;;;214.27;;
75156;SDS011;63736;50.076;8.198;2023-09-08T02:58:02;880.83;;;213.20;;
75156;SDS011;63736;50.076;8.198;2023-09-08T03:00:27;870.47;;;210.30;;
75156;SDS011;63736;50.076;8.198;2023-09-08T03:02:53;864.13;;;209.43;;
75156;SDS011;63736;50.076;8.198;2023-09-08T03:05:18;859.73;;;209.23;;
75156;SDS011;63736;50.076;8.198;2023-09-08T03:07:43;857.17;;;208.07;;
75156;SDS011;63736;50.076;8.198;2023-09-08T03:10:09;851.60;;;206.03;;
75156;SDS011;63736;50.076;8.198;2023-09-08T03:12:34;847.33;;;205.27;;
75156;SDS011;63736;50.076;8.198;2023-09-08T03:15:00;845.83;;;204.20;;
75156;SDS011;63736;50.076;8.198;2023-09-08T03:17:26;847.25;;;204.55;;
75156;SDS011;63736;50.076;8.198;2023-09-08T03:19:52;847.75;;;205.63;;
75156;SDS011;63736;50.076;8.198;2023-09-08T03:22:17;848.83;;;205.70;;
75156;SDS011;63736;50.076;8.198;2023-09-08T03:24:43;843.33;;;203.90;;
75156;SDS011;63736;50.076;8.198;2023-09-08T03:27:08;842.00;;;204.00;;
75156;SDS011;63736;50.076;8.198;2023-09-08T03:29:33;843.37;;;204.20;;
75156;SDS011;63736;50.076;8.198;2023-09-08T03:31:58;843.57;;;204.13;;
75156;SDS011;63736;50.076;8.198;2023-09-08T03:34:24;848.10;;;206.50;;
75156;SDS011;63736;50.076;8.198;2023-09-08T03:36:49;846.87;;;205.03;;
75156;SDS011;63736;50.076;8.198;2023-09-08T03:39:15;845.60;;;204.18;;
75156;SDS011;63736;50.076;8.198;2023-09-08T03:41:40;845.70;;;204.83;;
75156;SDS011;63736;50.076;8.198;2023-09-08T03:44:06;843.67;;;203.35;;
75156;SDS011;63736;50.076;8.198;2023-09-08T03:46:31;843.27;;;204.43;;
75156;SDS011;63736;50.076;8.198;2023-09-08T03:48:56;839.03;;;203.33;;
75156;SDS011;63736;50.076;8.198;2023-09-08T03:51:25;839.30;;;204.10;;
75156;SDS011;63736;50.076;8.198;2023-09-08T03:53:51;838.23;;;204.17;;
75156;SDS011;63736;50.076;8.198;2023-09-08T03:56:16;837.90;;;203.87;;
75156;SDS011;63736;50.076;8.198;2023-09-08T03:58:42;835.17;;;202.17;;
75156;SDS011;63736;50.076;8.198;2023-09-08T04:01:07;837.53;;;203.10;;
75156;SDS011;63736;50.076;8.198;2023-09-08T04:03:32;834.90;;;201.43;;
75156;SDS011;63736;50.076;8.198;2023-09-08T04:05:58;834.57;;;201.93;;
75156;SDS011;63736;50.076;8.198;2023-09-08T04:08:23;832.60;;;200.87;;
75156;SDS011;63736;50.076;8.198;2023-09-08T04:10:48;834.10;;;202.50;;
75156;SDS011;63736;50.076;8.198;2023-09-08T04:13:13;831.23;;;200.37;;
75156;SDS011;63736;50.076;8.198;2023-09-08T04:15:38;836.77;;;204.20;;
75156;SDS011;63736;50.076;8.198;2023-09-08T04:18:04;832.80;;;201.87;;
75156;SDS011;63736;50.076;8.198;2023-09-08T04:20:29;831.85;;;202.18;;
75156;SDS011;63736;50.076;8.198;2023-09-08T04:22:54;832.80;;;205.43;;
75156;SDS011;63736;50.076;8.198;2023-09-08T04:25:20;823.13;;;199.30;;
75156;SDS011;63736;50.076;8.198;2023-09-08T04:27:46;823.42;;;198.82;;
75156;SDS011;63736;50.076;8.198;2023-09-08T04:30:12;822.90;;;199.00;;
75156;SDS011;63736;50.076;8.198;2023-09-08T04:32:37;823.65;;;199.48;;
75156;SDS011;63736;50.076;8.198;2023-09-08T04:35:03;825.13;;;199.77;;
75156;SDS011;63736;50.076;8.198;2023-09-08T04:37:29;823.67;;;199.47;;
75156;SDS011;63736;50.076;8.198;2023-09-08T04:39:55;823.83;;;200.23;;
75156;SDS011;63736;50.076;8.198;2023-09-08T04:42:21;819.58;;;198.77;;
75156;SDS011;63736;50.076;8.198;2023-09-08T04:44:48;818.45;;;198.82;;
75156;SDS011;63736;50.076;8.198;2023-09-08T04:47:13;821.30;;;199.50;;
75156;SDS011;63736;50.076;8.198;2023-09-08T04:49:38;819.30;;;198.97;;
75156;SDS011;63736;50.076;8.198;2023-09-08T04:52:03;820.40;;;199.17;;
75156;SDS011;63736;50.076;8.198;2023-09-08T04:54:29;818.33;;;198.33;;
75156;SDS011;63736;50.076;8.198;2023-09-08T04:56:54;821.17;;;198.38;;
75156;SDS011;63736;50.076;8.198;2023-09-08T04:59:20;818.13;;;198.03;;
75156;SDS011;63736;50.076;8.198;2023-09-08T05:01:47;819.50;;;197.80;;
75156;SDS011;63736;50.076;8.198;2023-09-08T05:04:13;819.00;;;198.27;;
75156;SDS011;63736;50.076;8.198;2023-09-08T05:06:38;817.07;;;197.10;;
75156;SDS011;63736;50.076;8.198;2023-09-08T05:09:03;817.03;;;197.70;;
75156;SDS011;63736;50.076;8.198;2023-09-08T05:11:28;816.60;;;196.80;;
75156;SDS011;63736;50.076;8.198;2023-09-08T05:13:54;816.13;;;197.33;;
75156;SDS011;63736;50.076;8.198;2023-09-08T05:16:19;818.40;;;198.97;;
75156;SDS011;63736;50.076;8.198;2023-09-08T05:18:51;819.53;;;198.32;;
75156;SDS011;63736;50.076;8.198;2023-09-08T05:21:16;820.87;;;198.33;;
75156;SDS011;63736;50.076;8.198;2023-09-08T05:23:42;822.10;;;199.80;;
75156;SDS011;63736;50.076;8.198;2023-09-08T05:26:07;819.13;;;197.30;;
75156;SDS011;63736;50.076;8.198;2023-09-08T05:28:32;823.83;;;200.23;;
75156;SDS011;63736;50.076;8.198;2023-09-08T05:30:57;818.07;;;198.20;;
75156;SDS011;63736;50.076;8.198;2023-09-08T05:33:23;819.30;;;198.70;;
75156;SDS011;63736;50.076;8.198;2023-09-08T05:35:48;820.43;;;199.33;;
75156;SDS011;63736;50.076;8.198;2023-09-08T05:38:13;818.53;;;197.53;;
75156;SDS011;63736;50.076;8.198;2023-09-08T05:40:39;822.40;;;200.05;;
75156;SDS011;63736;50.076;8.198;2023-09-08T05:43:04;872.10;;;212.83;;
75156;SDS011;63736;50.076;8.198;2023-09-08T05:45:32;1035.20;;;252.07;;
75156;SDS011;63736;50.076;8.198;2023-09-08T05:47:58;1087.88;;;268.52;;
75156;SDS011;63736;50.076;8.198;2023-09-08T05:50:23;1066.70;;;261.27;;
75156;SDS011;63736;50.076;8.198;2023-09-08T05:52:49;983.57;;;235.47;;
75156;SDS011;63736;50.076;8.198;2023-09-08T05:55:14;1071.70;;;255.47;;
75156;SDS011;63736;50.076;8.198;2023-09-08T05:57:39;1047.60;;;249.53;;
75156;SDS011;63736;50.076;8.198;2023-09-08T06:00:06;1040.87;;;245.83;;
75156;SDS011;63736;50.076;8.198;2023-09-08T06:02:31;1029.80;;;243.07;;
75156;SDS011;63736;50.076;8.198;2023-09-08T06:04:57;999.80;;;235.67;;
75156;SDS011;63736;50.076;8.198;2023-09-08T06:07:22;1025.17;;;243.20;;
75156;SDS011;63736;50.076;8.198;2023-09-08T06:09:47;996.33;;;236.40;;
75156;SDS011;63736;50.076;8.198;2023-09-08T06:12:13;943.13;;;224.73;;
75156;SDS011;63736;50.076;8.198;2023-09-08T06:14:38;888.70;;;211.03;;
75156;SDS011;63736;50.076;8.198;2023-09-08T06:17:03;884.43;;;210.97;;
75156;SDS011;63736;50.076;8.198;2023-09-08T06:19:28;881.57;;;212.07;;
75156;SDS011;63736;50.076;8.198;2023-09-08T06:21:53;970.97;;;232.83;;
75156;SDS011;63736;50.076;8.198;2023-09-08T06:24:19;949.73;;;226.93;;
75156;SDS011;63736;50.076;8.198;2023-09-08T06:26:44;915.53;;;219.50;;
75156;SDS011;63736;50.076;8.198;2023-09-08T06:29:09;956.77;;;228.80;;
75156;SDS011;63736;50.076;8.198;2023-09-08T06:31:35;887.47;;;216.15;;
75156;SDS011;63736;50.076;8.198;2023-09-08T06:34:00;941.40;;;227.73;;
75156;SDS011;63736;50.076;8.198;2023-09-08T06:36:26;926.37;;;224.77;;
75156;SDS011;63736;50.076;8.198;2023-09-08T06:38:51;835.87;;;204.90;;
75156;SDS011;63736;50.076;8.198;2023-09-08T06:41:16;741.23;;;182.27;;
75156;SDS011;63736;50.076;8.198;2023-09-08T06:43:42;763.72;;;188.55;;
75156;SDS011;63736;50.076;8.198;2023-09-08T06:46:09;757.60;;;188.27;;
75156;SDS011;63736;50.076;8.198;2023-09-08T06:48:34;737.27;;;181.87;;
75156;SDS011;63736;50.076;8.198;2023-09-08T06:51:00;727.10;;;180.23;;
75156;SDS011;63736;50.076;8.198;2023-09-08T06:53:25;728.23;;;183.60;;
75156;SDS011;63736;50.076;8.198;2023-09-08T06:55:51;715.40;;;180.33;;
75156;SDS011;63736;50.076;8.198;2023-09-08T06:58:16;711.08;;;176.82;;
75156;SDS011;63736;50.076;8.198;2023-09-08T07:00:41;729.87;;;182.03;;
75156;SDS011;63736;50.076;8.198;2023-09-08T07:03:07;735.87;;;183.23;;
75156;SDS011;63736;50.076;8.198;2023-09-08T07:05:33;744.08;;;186.20;;
75156;SDS011;63736;50.076;8.198;2023-09-08T07:07:58;686.90;;;173.57;;
75156;SDS011;63736;50.076;8.198;2023-09-08T07:10:24;667.47;;;167.80;;
75156;SDS011;63736;50.076;8.198;2023-09-08T07:12:49;663.47;;;167.57;;
75156;SDS011;63736;50.076;8.198;2023-09-08T07:15:14;670.40;;;170.17;;
75156;SDS011;63736;50.076;8.198;2023-09-08T07:17:40;656.07;;;166.83;;
75156;SDS011;63736;50.076;8.198;2023-09-08T07:20:05;657.47;;;168.03;;
75156;SDS011;63736;50.076;8.198;2023-09-08T07:22:31;666.65;;;170.65;;
75156;SDS011;63736;50.076;8.198;2023-09-08T07:24:56;680.97;;;173.33;;
75156;SDS011;63736;50.076;8.198;2023-09-08T07:27:22;667.00;;;170.67;;
75156;SDS011;63736;50.076;8.198;2023-09-08T07:29:47;658.13;;;168.20;;
75156;SDS011;63736;50.076;8.198;2023-09-08T07:32:14;653.17;;;165.88;;
75156;SDS011;63736;50.076;8.198;2023-09-08T07:34:40;657.20;;;169.38;;
75156;SDS011;63736;50.076;8.198;2023-09-08T07:37:05;656.77;;;168.03;;
75156;SDS011;63736;50.076;8.198;2023-09-08T07:39:30;655.33;;;168.50;;
75156;SDS011;63736;50.076;8.198;2023-09-08T07:41:56;648.45;;;166.23;;
75156;SDS011;63736;50.076;8.198;2023-09-08T07:44:22;639.90;;;162.87;;
75156;SDS011;63736;50.076;8.198;2023-09-08T07:46:47;642.67;;;164.50;;
75156;SDS011;63736;50.076;8.198;2023-09-08T07:49:14;638.22;;;164.50;;
75156;SDS011;63736;50.076;8.198;2023-09-08T07:51:40;627.70;;;160.65;;
75156;SDS011;63736;50.076;8.198;2023-09-08T07:54:05;624.90;;;160.60;;
75156;SDS011;63736;50.076;8.198;2023-09-08T07:56:31;624.70;;;160.07;;
75156;SDS011;63736;50.076;8.198;2023-09-08T07:58:57;624.03;;;159.23;;
75156;SDS011;63736;50.076;8.198;2023-09-08T08:01:22;632.27;;;163.73;;
75156;SDS011;63736;50.076;8.198;2023-09-08T08:03:48;635.03;;;160.80;;
75156;SDS011;63736;50.076;8.198;2023-09-08T08:06:13;630.63;;;161.50;;
75156;SDS011;63736;50.076;8.198;2023-09-08T08:08:39;627.60;;;161.10;;
75156;SDS011;63736;50.076;8.198;2023-09-08T08:11:09;618.33;;;159.80;;
75156;SDS011;63736;50.076;8.198;2023-09-08T08:13:38;612.42;;;158.75;;
75156;SDS011;63736;50.076;8.198;2023-09-08T08:16:03;606.83;;;156.47;;
75156;SDS011;63736;50.076;8.198;2023-09-08T08:18:28;613.77;;;159.40;;
75156;SDS011;63736;50.076;8.198;2023-09-08T08:20:54;584.47;;;153.00;;
75156;SDS011;63736;50.076;8.198;2023-09-08T08:23:19;575.43;;;151.57;;
75156;SDS011;63736;50.076;8.198;2023-09-08T08:25:44;577.67;;;152.33;;
75156;SDS011;63736;50.076;8.198;2023-09-08T08:28:10;574.43;;;153.13;;
75156;SDS011;63736;50.076;8.198;2023-09-08T08:30:35;557.23;;;147.63;;
75156;SDS011;63736;50.076;8.198;2023-09-08T08:33:00;554.65;;;147.57;;
75156;SDS011;63736;50.076;8.198;2023-09-08T08:35:26;549.80;;;147.10;;
75156;SDS011;63736;50.076;8.198;2023-09-08T08:37:51;551.33;;;147.40;;
75156;SDS011;63736;50.076;8.198;2023-09-08T08:40:16;558.23;;;150.77;;
75156;SDS011;63736;50.076;8.198;2023-09-08T08:42:42;559.83;;;148.33;;
75156;SDS011;63736;50.076;8.198;2023-09-08T08:45:07;550.57;;;147.63;;
75156;SDS011;63736;50.076;8.198;2023-09-08T08:47:33;548.38;;;146.63;;
75156;SDS011;63736;50.076;8.198;2023-09-08T08:50:02;546.07;;;146.23;;
75156;SDS011;63736;50.076;8.198;2023-09-08T08:52:28;541.92;;;146.23;;
75156;SDS011;63736;50.076;8.198;2023-09-08T08:54:54;540.57;;;144.60;;
75156;SDS011;63736;50.076;8.198;2023-09-08T08:57:20;534.53;;;143.98;;
75156;SDS011;63736;50.076;8.198;2023-09-08T08:59:46;539.08;;;145.65;;
75156;SDS011;63736;50.076;8.198;2023-09-08T09:02:13;540.70;;;144.93;;
75156;SDS011;63736;50.076;8.198;2023-09-08T09:04:39;536.45;;;144.05;;
75156;SDS011;63736;50.076;8.198;2023-09-08T09:07:06;537.22;;;145.98;;
75156;SDS011;63736;50.076;8.198;2023-09-08T09:09:32;532.13;;;143.75;;
75156;SDS011;63736;50.076;8.198;2023-09-08T09:11:57;534.77;;;143.67;;
75156;SDS011;63736;50.076;8.198;2023-09-08T09:14:23;537.80;;;143.97;;
75156;SDS011;63736;50.076;8.198;2023-09-08T09:16:48;537.37;;;146.10;;
75156;SDS011;63736;50.076;8.198;2023-09-08T09:19:21;539.85;;;144.63;;
75156;SDS011;63736;50.076;8.198;2023-09-08T09:21:52;545.55;;;147.23;;
75156;SDS011;63736;50.076;8.198;2023-09-08T09:24:40;545.00;;;146.23;;
75156;SDS011;63736;50.076;8.198;2023-09-08T09:27:08;552.90;;;146.40;;
75156;SDS011;63736;50.076;8.198;2023-09-08T09:29:43;555.40;;;146.57;;
75156;SDS011;63736;50.076;8.198;2023-09-08T09:32:11;554.83;;;148.65;;
75156;SDS011;63736;50.076;8.198;2023-09-08T09:34:46;550.63;;;147.88;;
75156;SDS011;63736;50.076;8.198;2023-09-08T09:37:19;557.08;;;147.27;;
75156;SDS011;63736;50.076;8.198;2023-09-08T09:39:52;563.30;;;147.57;;
75156;SDS011;63736;50.076;8.198;2023-09-08T09:42:19;559.22;;;147.02;;
75156;SDS011;63736;50.076;8.198;2023-09-08T09:44:49;561.58;;;149.60;;
75156;SDS011;63736;50.076;8.198;2023-09-08T09:47:16;561.55;;;148.13;;
75156;SDS011;63736;50.076;8.198;2023-09-08T09:49:42;563.05;;;147.88;;
75156;SDS011;63736;50.076;8.198;2023-09-08T09:52:09;568.00;;;149.13;;
75156;SDS011;63736;50.076;8.198;2023-09-08T09:54:38;552.55;;;145.75;;
75156;SDS011;63736;50.076;8.198;2023-09-08T09:57:04;550.83;;;146.82;;
75156;SDS011;63736;50.076;8.198;2023-09-08T09:59:30;553.00;;;145.87;;
75156;SDS011;63736;50.076;8.198;2023-09-08T10:01:55;554.75;;;146.77;;
75156;SDS011;63736;50.076;8.198;2023-09-08T10:04:21;559.97;;;146.37;;
75156;SDS011;63736;50.076;8.198;2023-09-08T10:06:47;567.92;;;149.23;;
75156;SDS011;63736;50.076;8.198;2023-09-08T10:09:13;574.87;;;147.57;;
75156;SDS011;63736;50.076;8.198;2023-09-08T10:11:42;581.58;;;149.60;;
75156;SDS011;63736;50.076;8.198;2023-09-08T10:14:12;586.45;;;150.27;;
75156;SDS011;63736;50.076;8.198;2023-09-08T10:16:39;580.53;;;148.70;;
75156;SDS011;63736;50.076;8.198;2023-09-08T10:19:09;572.00;;;146.63;;
75156;SDS011;63736;50.076;8.198;2023-09-08T10:21:42;578.58;;;150.05;;
75156;SDS011;63736;50.076;8.198;2023-09-08T10:24:27;581.15;;;149.43;;
75156;SDS011;63736;50.076;8.198;2023-09-08T10:27:03;829.00;;;202.50;;
75156;SDS011;63736;50.076;8.198;2023-09-08T10:29:32;792.63;;;194.17;;
75156;SDS011;63736;50.076;8.198;2023-09-08T10:31:58;755.45;;;184.73;;
75156;SDS011;63736;50.076;8.198;2023-09-08T10:34:24;820.00;;;201.88;;
75156;SDS011;63736;50.076;8.198;2023-09-08T10:36:51;800.83;;;196.63;;
75156;SDS011;63736;50.076;8.198;2023-09-08T10:39:30;882.47;;;214.23;;
75156;SDS011;63736;50.076;8.198;2023-09-08T10:44:44;843.42;;;206.85;;
75156;SDS011;63736;50.076;8.198;2023-09-08T10:47:31;829.38;;;203.98;;
75156;SDS011;63736;50.076;8.198;2023-09-08T10:49:59;824.80;;;201.13;;
75156;SDS011;63736;50.076;8.198;2023-09-08T10:52:25;808.55;;;197.20;;
75156;SDS011;63736;50.076;8.198;2023-09-08T10:54:52;804.87;;;197.53;;
75156;SDS011;63736;50.076;8.198;2023-09-08T10:57:20;791.10;;;193.85;;
75156;SDS011;63736;50.076;8.198;2023-09-08T11:02:32;811.40;;;198.00;;
75156;SDS011;63736;50.076;8.198;2023-09-08T11:05:03;825.67;;;201.30;;
75156;SDS011;63736;50.076;8.198;2023-09-08T11:07:31;831.45;;;204.70;;
75156;SDS011;63736;50.076;8.198;2023-09-08T11:09:57;823.60;;;200.73;;
75156;SDS011;63736;50.076;8.198;2023-09-08T11:12:25;828.63;;;203.33;;
75156;SDS011;63736;50.076;8.198;2023-09-08T11:14:51;828.00;;;204.38;;
75156;SDS011;63736;50.076;8.198;2023-09-08T11:17:17;821.17;;;201.13;;
75156;SDS011;63736;50.076;8.198;2023-09-08T11:19:43;823.33;;;202.57;;
75156;SDS011;63736;50.076;8.198;2023-09-08T11:22:10;821.03;;;202.80;;
75156;SDS011;63736;50.076;8.198;2023-09-08T11:24:35;815.43;;;199.60;;
75156;SDS011;63736;50.076;8.198;2023-09-08T11:27:00;814.50;;;200.07;;
75156;SDS011;63736;50.076;8.198;2023-09-08T11:29:26;817.50;;;201.63;;
75156;SDS011;63736;50.076;8.198;2023-09-08T11:31:52;813.58;;;198.15;;
75156;SDS011;63736;50.076;8.198;2023-09-08T11:34:20;813.60;;;200.38;;
75156;SDS011;63736;50.076;8.198;2023-09-08T11:36:46;810.27;;;198.27;;
75156;SDS011;63736;50.076;8.198;2023-09-08T11:39:11;811.97;;;198.80;;
75156;SDS011;63736;50.076;8.198;2023-09-08T11:41:36;806.77;;;197.30;;
75156;SDS011;63736;50.076;8.198;2023-09-08T11:44:02;807.47;;;199.37;;
75156;SDS011;63736;50.076;8.198;2023-09-08T11:46:27;802.03;;;196.20;;
75156;SDS011;63736;50.076;8.198;2023-09-08T11:48:53;798.10;;;196.47;;
75156;SDS011;63736;50.076;8.198;2023-09-08T11:51:22;793.03;;;195.03;;
75156;SDS011;63736;50.076;8.198;2023-09-08T11:53:48;792.10;;;194.33;;
75156;SDS011;63736;50.076;8.198;2023-09-08T11:56:14;785.17;;;192.38;;
75156;SDS011;63736;50.076;8.198;2023-09-08T11:58:39;784.80;;;193.17;;
75156;SDS011;63736;50.076;8.198;2023-09-08T12:01:06;785.10;;;193.52;;
75156;SDS011;63736;50.076;8.198;2023-09-08T12:03:32;778.73;;;192.70;;
75156;SDS011;63736;50.076;8.198;2023-09-08T12:05:57;777.35;;;190.60;;
75156;SDS011;63736;50.076;8.198;2023-09-08T12:08:24;781.67;;;192.60;;
75156;SDS011;63736;50.076;8.198;2023-09-08T12:10:53;778.70;;;190.82;;
75156;SDS011;63736;50.076;8.198;2023-09-08T12:13:24;774.20;;;190.27;;
75156;SDS011;63736;50.076;8.198;2023-09-08T12:15:50;774.92;;;190.60;;
75156;SDS011;63736;50.076;8.198;2023-09-08T12:18:15;772.63;;;189.70;;
75156;SDS011;63736;50.076;8.198;2023-09-08T12:20:41;772.13;;;190.67;;
75156;SDS011;63736;50.076;8.198;2023-09-08T12:23:17;768.88;;;188.85;;
75156;SDS011;63736;50.076;8.198;2023-09-08T12:25:50;773.20;;;190.63;;
75156;SDS011;63736;50.076;8.198;2023-09-08T12:28:17;773.22;;;190.13;;
75156;SDS011;63736;50.076;8.198;2023-09-08T12:30:44;772.60;;;189.43;;
75156;SDS011;63736;50.076;8.198;2023-09-08T12:33:09;769.33;;;189.47;;
75156;SDS011;63736;50.076;8.198;2023-09-08T12:35:36;769.92;;;189.98;;
75156;SDS011;63736;50.076;8.198;2023-09-08T12:38:02;769.80;;;190.23;;
75156;SDS011;63736;50.076;8.198;2023-09-08T12:40:30;769.25;;;189.57;;
75156;SDS011;63736;50.076;8.198;2023-09-08T12:42:58;766.73;;;187.73;;
75156;SDS011;63736;50.076;8.198;2023-09-08T12:45:24;771.45;;;189.27;;
75156;SDS011;63736;50.076;8.198;2023-09-08T12:47:51;770.30;;;188.97;;
75156;SDS011;63736;50.076;8.198;2023-09-08T12:50:16;770.53;;;189.85;;
75156;SDS011;63736;50.076;8.198;2023-09-08T12:52:42;769.90;;;189.40;;
75156;SDS011;63736;50.076;8.198;2023-09-08T12:55:08;770.20;;;189.15;;
75156;SDS011;63736;50.076;8.198;2023-09-08T12:57:34;766.92;;;189.10;;
75156;SDS011;63736;50.076;8.198;2023-09-08T13:00:00;767.37;;;188.73;;
75156;SDS011;63736;50.076;8.198;2023-09-08T13:02:25;770.13;;;189.27;;
75156;SDS011;63736;50.076;8.198;2023-09-08T13:04:51;774.13;;;190.93;;
75156;SDS011;63736;50.076;8.198;2023-09-08T13:07:17;770.40;;;189.50;;
75156;SDS011;63736;50.076;8.198;2023-09-08T13:09:43;767.72;;;188.90;;
75156;SDS011;63736;50.076;8.198;2023-09-08T13:12:08;769.47;;;189.27;;
75156;SDS011;63736;50.076;8.198;2023-09-08T13:14:35;770.42;;;191.30;;
75156;SDS011;63736;50.076;8.198;2023-09-08T13:17:00;768.87;;;190.20;;
75156;SDS011;63736;50.076;8.198;2023-09-08T13:19:26;771.65;;;191.63;;
75156;SDS011;63736;50.076;8.198;2023-09-08T13:21:51;762.83;;;187.73;;
75156;SDS011;63736;50.076;8.198;2023-09-08T13:24:16;770.03;;;189.37;;
75156;SDS011;63736;50.076;8.198;2023-09-08T13:26:42;767.77;;;189.37;;
75156;SDS011;63736;50.076;8.198;2023-09-08T13:29:07;771.17;;;188.97;;
75156;SDS011;63736;50.076;8.198;2023-09-08T13:31:32;767.45;;;187.52;;
75156;SDS011;63736;50.076;8.198;2023-09-08T13:33:58;767.27;;;188.37;;
75156;SDS011;63736;50.076;8.198;2023-09-08T13:36:23;765.77;;;187.37;;
75156;SDS011;63736;50.076;8.198;2023-09-08T13:38:48;767.00;;;189.50;;
75156;SDS011;63736;50.076;8.198;2023-09-08T13:41:13;763.73;;;186.77;;
75156;SDS011;63736;50.076;8.198;2023-09-08T13:43:39;765.27;;;188.50;;
75156;SDS011;63736;50.076;8.198;2023-09-08T13:46:04;764.90;;;188.17;;
75156;SDS011;63736;50.076;8.198;2023-09-08T13:48:29;767.60;;;189.47;;
75156;SDS011;63736;50.076;8.198;2023-09-08T13:50:55;769.08;;;190.27;;
75156;SDS011;63736;50.076;8.198;2023-09-08T13:53:21;762.03;;;187.43;;
75156;SDS011;63736;50.076;8.198;2023-09-08T13:55:46;761.30;;;188.70;;
75156;SDS011;63736;50.076;8.198;2023-09-08T13:58:13;760.83;;;187.50;;